Time;durP1;ratioP1;P1;durP2;ratioP2;P2;SDS_P1;SDS_P2;PMS_P1;PMS_P2;Temp;Humidity;BMP_temperature;BMP_pressure;BME280_temperature;BME280_humidity;BME280_pressure;Samples;Min_cycle;Max_cycle;Signal;HPM_P1;HPM_P2
2022/08/26 00:01:41;;;;;;;14.13;8.40;;;22.80;99.90;;;;;;4992648;28;20323;-70
2022/08/26 00:04:08;;;;;;;17.27;8.20;;;22.80;99.90;;;;;;4993319;28;20261;-71
2022/08/26 00:06:37;;;;;;;14.77;8.27;;;22.80;99.90;;;;;;4992515;28;20223;-70
2022/08/26 00:09:04;;;;;;;13.23;8.27;;;22.70;99.90;;;;;;4992855;28;20211;-71
2022/08/26 00:11:31;;;;;;;12.97;7.83;;;22.70;99.90;;;;;;4992999;28;20204;-72
2022/08/26 00:13:59;;;;;;;13.70;8.23;;;22.70;99.90;;;;;;4992796;28;20277;-73
2022/08/26 00:16:28;;;;;;;14.17;8.10;;;22.70;99.90;;;;;;4992812;28;20456;-71
2022/08/26 00:18:55;;;;;;;10.60;7.57;;;22.60;99.90;;;;;;4995361;28;20262;-71
2022/08/26 00:21:21;;;;;;;12.87;7.93;;;22.60;99.90;;;;;;4977278;28;20205;-72
2022/08/26 00:23:50;;;;;;;14.10;7.90;;;22.60;99.90;;;;;;4981859;28;20611;-72
2022/08/26 00:26:17;;;;;;;12.13;7.30;;;22.60;99.90;;;;;;4972267;28;20558;-72
2022/08/26 00:28:44;;;;;;;11.97;7.53;;;22.60;99.90;;;;;;4991934;28;20298;-71
2022/08/26 00:31:11;;;;;;;11.97;7.73;;;22.60;99.90;;;;;;4991192;28;20302;-71
2022/08/26 00:33:38;;;;;;;13.93;8.10;;;22.60;99.90;;;;;;5000241;28;20652;-71
2022/08/26 00:36:05;;;;;;;15.43;8.03;;;22.60;99.90;;;;;;4991484;28;20205;-72
2022/08/26 00:38:32;;;;;;;14.87;9.17;;;22.50;99.90;;;;;;4991646;28;20294;-70
2022/08/26 00:41:00;;;;;;;10.80;7.60;;;22.50;99.90;;;;;;4991415;28;20742;-71
2022/08/26 00:43:32;;;;;;;11.97;7.83;;;22.50;99.90;;;;;;4992196;28;20216;-71
2022/08/26 00:46:07;;;;;;;13.03;8.17;;;22.50;99.90;;;;;;4991428;28;20659;-72
2022/08/26 00:48:35;;;;;;;12.37;8.00;;;22.50;99.90;;;;;;4992501;28;20187;-71
2022/08/26 00:51:06;;;;;;;12.60;7.77;;;22.50;99.90;;;;;;4991574;28;20210;-71
2022/08/26 00:53:39;;;;;;;12.60;8.00;;;22.50;99.90;;;;;;4992047;28;20282;-72
2022/08/26 00:56:17;;;;;;;14.13;8.13;;;22.40;99.90;;;;;;4991768;28;20219;-71
2022/08/26 00:58:46;;;;;;;12.00;7.53;;;22.40;99.90;;;;;;4992102;28;20634;-72
2022/08/26 01:01:14;;;;;;;11.10;7.70;;;22.40;99.90;;;;;;4991964;28;20225;-71
2022/08/26 01:03:45;;;;;;;13.47;7.77;;;22.30;99.90;;;;;;4991405;28;20208;-71
2022/08/26 01:06:13;;;;;;;11.33;7.87;;;22.30;99.90;;;;;;4997027;28;20650;-70
2022/08/26 01:08:40;;;;;;;12.93;7.80;;;22.30;99.90;;;;;;5009989;28;20266;-71
2022/08/26 01:11:09;;;;;;;12.03;7.83;;;22.30;99.90;;;;;;4991195;28;20295;-72
2022/08/26 01:13:37;;;;;;;13.30;7.50;;;22.20;99.90;;;;;;4991718;28;20271;-70
2022/08/26 01:16:08;;;;;;;10.70;7.53;;;22.30;99.90;;;;;;4991236;28;20682;-71
2022/08/26 01:18:35;;;;;;;12.27;7.63;;;22.20;99.90;;;;;;4991127;28;20203;-69
2022/08/26 01:21:13;;;;;;;11.87;7.57;;;22.20;99.90;;;;;;4991343;28;20748;-70
2022/08/26 01:23:46;;;;;;;14.63;8.17;;;22.20;99.90;;;;;;4994788;28;20310;-72
2022/08/26 01:26:16;;;;;;;12.83;8.20;;;22.20;99.90;;;;;;4995803;28;20276;-69
2022/08/26 01:28:44;;;;;;;14.37;7.60;;;22.20;99.90;;;;;;4991848;28;20624;-71
2022/08/26 01:31:16;;;;;;;14.73;7.70;;;22.10;99.90;;;;;;4991827;28;20208;-72
2022/08/26 01:33:51;;;;;;;11.57;7.43;;;22.10;99.90;;;;;;4991479;28;20223;-72
2022/08/26 01:36:18;;;;;;;10.87;7.40;;;22.10;99.90;;;;;;4992029;28;20191;-73
2022/08/26 01:38:46;;;;;;;11.80;7.33;;;22.10;99.90;;;;;;4991062;28;20308;-72
2022/08/26 01:41:15;;;;;;;11.80;6.97;;;22.10;99.90;;;;;;5005985;28;20221;-72
2022/08/26 01:43:44;;;;;;;11.77;7.60;;;22.10;99.90;;;;;;5010599;28;20295;-72
2022/08/26 01:46:13;;;;;;;13.90;7.63;;;22.10;99.90;;;;;;4993321;28;20235;-72
2022/08/26 01:48:44;;;;;;;9.90;7.13;;;22.10;99.90;;;;;;4990321;28;20296;-72
2022/08/26 01:51:13;;;;;;;14.73;7.30;;;22.10;99.90;;;;;;4991400;28;20286;-72
2022/08/26 01:53:41;;;;;;;13.33;7.87;;;22.00;99.90;;;;;;4989488;28;20212;-71
2022/08/26 01:56:10;;;;;;;12.90;7.30;;;22.10;99.90;;;;;;4990735;28;20298;-72
2022/08/26 01:58:41;;;;;;;11.00;6.90;;;22.00;99.90;;;;;;4989588;28;20243;-73
2022/08/26 02:01:08;;;;;;;11.30;7.13;;;22.00;99.90;;;;;;4990909;28;20700;-72
2022/08/26 02:03:42;;;;;;;9.53;6.90;;;22.00;99.90;;;;;;4988976;28;20296;-72
2022/08/26 02:06:09;;;;;;;12.63;7.20;;;22.00;99.90;;;;;;4991442;28;20283;-73
2022/08/26 02:08:40;;;;;;;10.73;7.20;;;22.00;99.90;;;;;;4990881;28;20242;-72
2022/08/26 02:11:10;;;;;;;11.73;7.37;;;21.90;99.90;;;;;;4990626;28;20188;-72
2022/08/26 02:13:41;;;;;;;12.03;7.23;;;22.00;99.90;;;;;;4991204;28;20656;-72
2022/08/26 02:16:09;;;;;;;13.80;7.30;;;21.90;99.90;;;;;;4990868;28;20278;-72
2022/08/26 02:18:38;;;;;;;16.73;8.23;;;21.90;99.90;;;;;;4990002;28;20263;-72
2022/08/26 02:21:07;;;;;;;12.67;7.63;;;21.90;99.90;;;;;;4991238;28;20640;-71
2022/08/26 02:23:34;;;;;;;12.90;7.63;;;21.90;99.90;;;;;;4990040;28;20203;-70
2022/08/26 02:26:07;;;;;;;11.80;7.60;;;21.80;99.90;;;;;;4990535;28;20246;-72
2022/08/26 02:28:42;;;;;;;13.23;7.73;;;21.80;99.90;;;;;;4986908;28;20220;-71
2022/08/26 02:31:09;;;;;;;11.00;7.60;;;21.80;99.90;;;;;;4989759;28;20633;-72
2022/08/26 02:33:36;;;;;;;13.70;7.77;;;21.70;99.90;;;;;;4990111;28;20207;-72
2022/08/26 02:36:05;;;;;;;13.77;7.67;;;21.70;99.90;;;;;;4990313;28;20209;-71
2022/08/26 02:38:31;;;;;;;10.57;7.23;;;21.60;99.90;;;;;;4989862;28;20203;-70
2022/08/26 02:40:58;;;;;;;12.93;7.57;;;21.60;99.90;;;;;;4990265;28;20298;-73
2022/08/26 02:43:25;;;;;;;14.23;7.77;;;21.60;99.90;;;;;;4990882;28;20642;-73
2022/08/26 02:45:54;;;;;;;14.07;7.60;;;21.60;99.90;;;;;;4989797;28;20211;-72
2022/08/26 02:48:21;;;;;;;13.27;7.50;;;21.50;99.90;;;;;;4990266;28;20212;-71
2022/08/26 02:50:49;;;;;;;11.87;7.73;;;21.50;99.90;;;;;;4989970;28;20294;-71
2022/08/26 02:53:17;;;;;;;12.60;7.40;;;21.50;99.90;;;;;;4990195;28;20606;-71
2022/08/26 02:55:43;;;;;;;14.33;8.23;;;21.50;99.90;;;;;;4990864;28;20632;-71
2022/08/26 02:58:11;;;;;;;12.60;6.87;;;21.40;99.90;;;;;;4990314;28;20239;-73
2022/08/26 03:00:38;;;;;;;14.47;7.67;;;21.40;99.90;;;;;;4989869;28;20204;-71
2022/08/26 03:03:07;;;;;;;11.77;7.43;;;21.40;99.90;;;;;;4990538;28;20297;-72
2022/08/26 03:05:34;;;;;;;16.20;8.37;;;21.30;99.90;;;;;;4990496;28;20258;-72
2022/08/26 03:08:01;;;;;;;15.13;8.37;;;21.30;99.90;;;;;;4989499;28;20313;-72
2022/08/26 03:10:30;;;;;;;12.63;8.03;;;21.30;99.90;;;;;;4990326;28;20290;-71
2022/08/26 03:12:58;;;;;;;11.83;7.53;;;21.20;99.90;;;;;;4989888;28;20213;-72
2022/08/26 03:15:26;;;;;;;13.77;7.70;;;21.20;99.90;;;;;;4989997;28;20219;-71
2022/08/26 03:17:54;;;;;;;13.00;8.00;;;21.20;99.90;;;;;;4989920;28;20312;-73
2022/08/26 03:20:23;;;;;;;12.73;7.77;;;21.20;99.90;;;;;;4990058;28;20298;-72
2022/08/26 03:22:52;;;;;;;11.60;8.07;;;21.10;99.90;;;;;;4989423;28;20247;-71
2022/08/26 03:25:20;;;;;;;11.70;7.77;;;21.10;99.90;;;;;;4990332;28;20744;-72
2022/08/26 03:27:47;;;;;;;12.83;8.17;;;21.00;99.90;;;;;;4989670;28;20233;-73
2022/08/26 03:33:01;;;;;;;17.37;8.30;;;21.00;99.90;;;;;;4989471;28;20199;-72
2022/08/26 03:35:30;;;;;;;15.23;8.57;;;21.00;99.90;;;;;;4980412;28;20258;-73
2022/08/26 03:37:58;;;;;;;12.73;7.60;;;21.00;99.90;;;;;;4995497;28;20299;-71
2022/08/26 03:40:25;;;;;;;18.50;8.63;;;21.00;99.90;;;;;;4998471;28;20671;-71
2022/08/26 03:42:52;;;;;;;13.97;8.90;;;21.00;99.90;;;;;;4993063;28;20275;-72
2022/08/26 03:45:20;;;;;;;17.37;9.40;;;21.00;99.90;;;;;;4993030;28;20219;-72
2022/08/26 03:47:48;;;;;;;16.53;9.77;;;21.00;99.90;;;;;;4992245;28;20240;-70
2022/08/26 03:50:18;;;;;;;13.90;8.80;;;21.00;99.90;;;;;;4977942;28;20296;-72
2022/08/26 03:52:46;;;;;;;15.23;9.80;;;21.00;99.90;;;;;;4982919;28;20214;-73
2022/08/26 03:55:14;;;;;;;16.77;9.20;;;21.00;99.90;;;;;;4992895;28;20546;-73
2022/08/26 03:57:41;;;;;;;13.40;8.77;;;21.00;99.90;;;;;;5009510;28;20306;-72
2022/08/26 04:00:12;;;;;;;13.63;9.17;;;21.10;99.90;;;;;;4992818;28;20298;-72
2022/08/26 04:02:39;;;;;;;17.43;9.30;;;21.00;99.90;;;;;;4992736;28;20202;-73
2022/08/26 04:05:07;;;;;;;13.00;8.67;;;21.10;99.90;;;;;;4992631;28;20207;-71
2022/08/26 04:07:34;;;;;;;15.37;8.97;;;21.10;99.90;;;;;;4992508;28;20309;-71
2022/08/26 04:10:04;;;;;;;17.53;9.07;;;21.10;99.90;;;;;;4977068;28;20236;-73
2022/08/26 04:12:31;;;;;;;19.13;8.53;;;21.10;99.90;;;;;;4981490;28;20799;-72
2022/08/26 04:14:57;;;;;;;15.77;8.70;;;21.10;99.90;;;;;;4990335;28;20283;-72
2022/08/26 04:17:25;;;;;;;13.87;8.27;;;21.00;99.90;;;;;;4993239;28;20214;-73
2022/08/26 04:19:53;;;;;;;14.63;8.87;;;21.10;99.90;;;;;;4992939;28;20716;-71
2022/08/26 04:22:20;;;;;;;16.20;8.23;;;21.10;99.90;;;;;;4989593;28;20204;-73
2022/08/26 04:24:46;;;;;;;21.10;8.43;;;21.10;99.90;;;;;;4992288;28;20218;-73
2022/08/26 04:27:15;;;;;;;16.57;8.60;;;21.10;99.90;;;;;;4992539;28;20591;-73
2022/08/26 04:29:42;;;;;;;21.03;8.60;;;21.20;99.90;;;;;;4992392;28;20729;-72
2022/08/26 04:32:09;;;;;;;16.97;8.00;;;21.20;99.90;;;;;;4991020;28;20244;-70
2022/08/26 04:34:37;;;;;;;15.30;7.33;;;21.20;99.90;;;;;;4994421;28;20207;-73
2022/08/26 04:37:05;;;;;;;11.63;7.23;;;21.30;99.90;;;;;;4992637;28;20878;-72
2022/08/26 04:39:33;;;;;;;16.27;8.47;;;21.30;99.90;;;;;;4992137;28;20310;-75
2022/08/26 04:42:00;;;;;;;13.27;7.67;;;21.40;99.90;;;;;;4992614;28;20214;-73
2022/08/26 04:44:30;;;;;;;11.70;7.10;;;21.40;99.90;;;;;;4992234;28;20751;-72
2022/08/26 04:46:58;;;;;;;18.30;7.47;;;21.50;99.90;;;;;;4991549;28;20791;-72
2022/08/26 04:49:25;;;;;;;11.77;7.00;;;21.50;99.90;;;;;;4991563;28;20237;-71
2022/08/26 04:51:52;;;;;;;15.43;7.43;;;21.60;99.90;;;;;;4992377;28;20814;-72
2022/08/26 04:54:19;;;;;;;19.37;7.50;;;21.60;99.90;;;;;;4991168;28;20265;-71
2022/08/26 04:56:49;;;;;;;11.67;7.40;;;21.60;99.90;;;;;;4973079;28;20338;-72
2022/08/26 04:59:17;;;;;;;20.57;9.70;;;21.70;99.90;;;;;;4972565;28;20298;-72
2022/08/26 05:01:48;;;;;;;14.30;8.10;;;21.70;99.90;;;;;;4980604;28;20247;-71
2022/08/26 05:04:16;;;;;;;26.50;9.57;;;21.70;99.90;;;;;;4991353;28;20239;-72
2022/08/26 05:06:43;;;;;;;17.17;7.93;;;21.80;99.90;;;;;;4991662;28;20211;-72
2022/08/26 05:09:13;;;;;;;18.67;9.27;;;21.80;99.90;;;;;;4992145;28;20227;-72
2022/08/26 05:11:40;;;;;;;16.13;8.60;;;21.90;99.90;;;;;;4991216;28;20214;-76
2022/08/26 05:14:07;;;;;;;16.20;7.83;;;21.90;99.90;;;;;;4991803;28;20294;-74
2022/08/26 05:16:34;;;;;;;19.73;8.80;;;22.00;99.90;;;;;;4991142;28;20211;-71
2022/08/26 05:19:02;;;;;;;19.53;7.73;;;22.10;99.90;;;;;;4996161;28;20207;-73
2022/08/26 05:21:29;;;;;;;20.97;8.20;;;22.10;99.90;;;;;;4993211;28;20214;-71
2022/08/26 05:23:56;;;;;;;14.57;7.93;;;22.20;99.90;;;;;;4991814;28;20620;-72
2022/08/26 05:26:25;;;;;;;19.90;8.23;;;22.20;99.90;;;;;;4992484;28;20640;-71
2022/08/26 05:28:52;;;;;;;19.93;8.57;;;22.30;99.90;;;;;;4991919;28;20774;-74
2022/08/26 05:31:23;;;;;;;17.33;8.37;;;22.30;99.90;;;;;;4991792;28;20256;-72
2022/08/26 05:33:50;;;;;;;17.43;7.53;;;22.40;99.90;;;;;;4991659;28;20207;-73
2022/08/26 05:36:20;;;;;;;20.70;8.47;;;22.50;99.90;;;;;;4993055;28;20299;-73
2022/08/26 05:38:48;;;;;;;17.23;7.83;;;22.60;99.90;;;;;;4991511;28;20279;-72
2022/08/26 05:41:17;;;;;;;20.13;7.80;;;22.60;99.90;;;;;;4991471;28;20292;-74
2022/08/26 05:43:44;;;;;;;20.20;7.77;;;22.70;99.90;;;;;;4992496;28;20304;-73
2022/08/26 05:46:12;;;;;;;24.37;11.57;;;22.70;99.90;;;;;;4991374;28;20240;-72
2022/08/26 05:48:39;;;;;;;21.63;7.70;;;22.70;99.90;;;;;;4991773;28;20215;-72
2022/08/26 05:51:08;;;;;;;14.07;6.43;;;22.80;99.90;;;;;;4990519;28;20298;-72
2022/08/26 05:53:37;;;;;;;11.70;5.90;;;22.90;99.20;;;;;;4991196;28;20290;-73
2022/08/26 05:56:06;;;;;;;13.53;6.60;;;22.90;98.80;;;;;;4991323;28;20303;-71
2022/08/26 05:58:34;;;;;;;12.67;6.03;;;23.00;98.80;;;;;;4990186;28;20729;-72
2022/08/26 06:01:03;;;;;;;24.23;6.70;;;23.00;98.80;;;;;;4990162;28;20301;-72
2022/08/26 06:03:32;;;;;;;16.77;5.60;;;23.10;98.00;;;;;;4989908;28;20729;-73
2022/08/26 06:05:59;;;;;;;16.47;5.53;;;23.20;98.10;;;;;;4991253;28;20580;-72
2022/08/26 06:08:25;;;;;;;19.73;5.40;;;23.20;98.10;;;;;;4990083;28;20235;-72
2022/08/26 06:10:55;;;;;;;13.43;5.77;;;23.30;97.50;;;;;;4988702;28;20654;-71
2022/08/26 06:13:25;;;;;;;16.67;5.70;;;23.30;97.30;;;;;;4990381;28;20210;-72
2022/08/26 06:15:53;;;;;;;12.07;5.27;;;23.40;97.20;;;;;;4991341;28;20217;-74
2022/08/26 06:18:22;;;;;;;9.63;5.43;;;23.40;97.10;;;;;;4991139;28;20227;-71
2022/08/26 06:20:51;;;;;;;18.20;6.10;;;23.50;97.00;;;;;;4989994;28;20293;-72
2022/08/26 06:26:05;;;;;;;9.97;5.47;;;23.60;96.30;;;;;;4992529;28;20294;-73
2022/08/26 06:28:33;;;;;;;16.33;6.17;;;23.60;96.30;;;;;;4990570;28;20311;-71
2022/08/26 06:31:02;;;;;;;15.67;5.93;;;23.70;96.80;;;;;;4992750;28;20748;-74
2022/08/26 06:33:30;;;;;;;31.67;6.90;;;23.80;96.70;;;;;;4997813;28;20209;-72
2022/08/26 06:35:57;;;;;;;13.60;5.80;;;23.90;96.40;;;;;;4994142;28;20202;-72
2022/08/26 06:38:24;;;;;;;15.80;5.77;;;23.90;95.70;;;;;;4992069;28;20262;-71
2022/08/26 06:40:53;;;;;;;13.83;5.80;;;24.00;95.40;;;;;;4991029;28;20260;-73
2022/08/26 06:43:23;;;;;;;15.97;7.40;;;24.00;95.40;;;;;;4990979;28;20211;-73
2022/08/26 06:45:51;;;;;;;13.87;6.00;;;24.10;95.50;;;;;;4989397;28;20275;-72
2022/08/26 06:48:20;;;;;;;16.47;5.30;;;24.10;94.80;;;;;;4990531;28;20217;-71
2022/08/26 06:50:47;;;;;;;14.90;5.90;;;24.10;94.90;;;;;;4996631;28;20209;-71
2022/08/26 06:53:14;;;;;;;13.37;5.30;;;24.20;94.70;;;;;;4992365;28;20216;-74
2022/08/26 06:55:42;;;;;;;16.37;5.80;;;24.20;94.50;;;;;;4989825;28;20753;-71
2022/08/26 06:58:09;;;;;;;14.57;5.80;;;24.30;95.10;;;;;;4989472;28;20212;-73
2022/08/26 07:00:38;;;;;;;24.40;9.40;;;24.40;94.80;;;;;;4989627;28;20218;-72
2022/08/26 07:03:06;;;;;;;27.37;6.30;;;24.50;94.70;;;;;;4989582;28;20293;-73
2022/08/26 07:05:33;;;;;;;9.93;5.23;;;24.50;94.30;;;;;;4990750;28;20647;-74
2022/08/26 07:08:00;;;;;;;10.10;5.40;;;24.60;93.30;;;;;;4988730;28;20211;-74
2022/08/26 07:10:27;;;;;;;16.57;5.57;;;24.70;93.60;;;;;;4989582;28;20309;-73
2022/08/26 07:12:54;;;;;;;28.87;5.87;;;24.80;93.40;;;;;;4995563;28;20271;-72
2022/08/26 07:15:21;;;;;;;13.27;4.83;;;24.80;93.10;;;;;;4995075;28;20255;-71
2022/08/26 07:17:49;;;;;;;15.10;5.47;;;24.90;92.80;;;;;;4992211;28;20659;-71
2022/08/26 07:20:16;;;;;;;12.67;5.23;;;25.00;93.20;;;;;;4993678;28;20208;-72
2022/08/26 07:22:44;;;;;;;23.27;5.90;;;25.10;92.90;;;;;;4992865;28;20237;-70
2022/08/26 07:25:11;;;;;;;13.27;5.47;;;25.20;92.20;;;;;;4993154;28;20645;-71
2022/08/26 07:27:38;;;;;;;13.43;5.50;;;25.30;92.70;;;;;;4993000;28;20300;-71
2022/08/26 07:30:06;;;;;;;16.17;5.37;;;25.40;93.00;;;;;;4992776;28;20227;-70
2022/08/26 07:32:34;;;;;;;13.47;5.67;;;25.50;92.70;;;;;;4993190;28;20652;-70
2022/08/26 07:35:02;;;;;;;21.40;5.30;;;25.50;92.20;;;;;;4993732;28;20217;-70
2022/08/26 07:37:29;;;;;;;15.87;5.00;;;25.60;92.30;;;;;;4994458;28;20270;-69
2022/08/26 07:39:56;;;;;;;15.70;5.17;;;25.70;92.00;;;;;;4993139;28;20208;-70
2022/08/26 07:42:23;;;;;;;46.13;7.10;;;25.70;92.00;;;;;;4992803;28;20396;-70
2022/08/26 07:44:50;;;;;;;14.55;5.60;;;25.70;92.10;;;;;;4994064;28;20288;-71
2022/08/26 07:47:17;;;;;;;15.80;5.73;;;25.70;92.70;;;;;;4992959;28;20682;-70
2022/08/26 07:49:44;;;;;;;14.87;5.10;;;25.80;92.00;;;;;;4993847;28;20330;-70
2022/08/26 07:52:12;;;;;;;14.17;5.00;;;25.80;91.90;;;;;;4992916;28;20264;-72
2022/08/26 07:54:39;;;;;;;12.97;4.90;;;25.90;92.10;;;;;;4993054;28;20207;-71
2022/08/26 07:57:06;;;;;;;19.03;5.37;;;25.90;92.10;;;;;;4993935;28;20207;-69
2022/08/26 07:59:33;;;;;;;15.07;5.07;;;25.90;91.90;;;;;;4993672;28;20281;-70
2022/08/26 08:02:00;;;;;;;16.55;4.90;;;26.00;91.80;;;;;;4993161;28;20211;-69
2022/08/26 08:04:27;;;;;;;12.23;4.70;;;26.00;91.80;;;;;;4992469;28;20230;-70
2022/08/26 08:06:55;;;;;;;13.65;4.65;;;26.10;91.80;;;;;;4992526;28;20220;-70
2022/08/26 08:09:24;;;;;;;12.52;4.85;;;26.10;92.00;;;;;;4992517;28;20219;-71
2022/08/26 08:11:51;;;;;;;12.18;4.88;;;26.10;92.20;;;;;;4993014;28;20554;-71
2022/08/26 08:14:18;;;;;;;19.43;5.57;;;26.20;91.80;;;;;;4992592;28;20250;-70
2022/08/26 08:16:46;;;;;;;15.73;5.15;;;26.30;91.70;;;;;;4992858;28;20237;-70
2022/08/26 08:19:13;;;;;;;13.65;4.38;;;26.30;91.90;;;;;;4992883;28;20213;-69
2022/08/26 08:21:40;;;;;;;22.05;5.78;;;26.30;91.40;;;;;;4991684;28;20212;-69
2022/08/26 08:24:08;;;;;;;78.28;9.38;;;26.40;91.30;;;;;;4992921;28;20657;-73
2022/08/26 08:26:37;;;;;;;16.70;5.30;;;26.40;91.20;;;;;;4992829;28;20644;-73
2022/08/26 08:29:05;;;;;;;20.38;5.72;;;26.40;91.00;;;;;;4992392;28;20269;-71
2022/08/26 08:31:33;;;;;;;45.95;7.15;;;26.50;90.70;;;;;;4993069;28;20301;-70
2022/08/26 08:33:59;;;;;;;14.68;4.45;;;26.60;90.90;;;;;;4992608;28;20662;-72
2022/08/26 08:36:26;;;;;;;14.95;4.68;;;26.60;90.50;;;;;;4991996;28;20210;-70
2022/08/26 08:38:53;;;;;;;18.98;4.00;;;26.70;90.30;;;;;;4992148;28;20292;-70
2022/08/26 08:41:42;;;;;;;10.80;4.10;;;26.70;90.00;;;;;;4992307;28;20306;-74
2022/08/26 08:44:13;;;;;;;7.97;4.30;;;26.80;90.40;;;;;;4992107;28;20199;-70
2022/08/26 08:46:41;;;;;;;15.77;4.28;;;26.80;90.00;;;;;;4992292;28;20241;-72
2022/08/26 08:49:09;;;;;;;12.52;5.38;;;26.90;90.40;;;;;;4992526;28;20230;-73
2022/08/26 08:51:42;;;;;;;17.48;5.07;;;26.90;90.20;;;;;;4992950;28;20270;-70
2022/08/26 08:54:10;;;;;;;8.70;4.05;;;27.00;90.00;;;;;;4992754;28;20284;-69
2022/08/26 08:56:42;;;;;;;18.40;4.30;;;27.10;89.00;;;;;;4993351;28;20298;-71
2022/08/26 08:59:15;;;;;;;9.18;3.88;;;27.20;88.40;;;;;;4992134;28;20225;-70
2022/08/26 09:01:52;;;;;;;8.50;3.90;;;27.20;89.10;;;;;;4992131;28;20195;-71
2022/08/26 09:04:57;;;;;;;10.48;4.03;;;27.30;89.80;;;;;;4992110;28;20601;-68
2022/08/26 09:07:28;;;;;;;11.98;4.07;;;27.40;87.20;;;;;;4985739;28;20284;-69
2022/08/26 09:09:59;;;;;;;13.25;4.55;;;27.40;88.60;;;;;;4992590;28;20285;-73
2022/08/26 09:12:30;;;;;;;12.63;4.32;;;27.50;89.40;;;;;;4993165;28;20208;-72
2022/08/26 09:15:02;;;;;;;15.05;3.85;;;27.60;87.30;;;;;;4995611;28;20291;-74
2022/08/26 09:17:39;;;;;;;11.05;3.42;;;27.60;85.70;;;;;;5000669;28;20618;-70
2022/08/26 09:20:16;;;;;;;15.13;4.20;;;27.60;85.70;;;;;;5008717;28;20199;-72
2022/08/26 09:22:43;;;;;;;10.20;3.60;;;27.70;87.20;;;;;;4993399;28;20286;-70
2022/08/26 09:25:13;;;;;;;14.75;3.90;;;27.80;87.10;;;;;;5008398;28;20277;-73
2022/08/26 09:27:44;;;;;;;13.52;3.80;;;27.80;84.80;;;;;;5011721;28;20288;-70
2022/08/26 09:30:13;;;;;;;12.85;3.67;;;27.90;86.40;;;;;;5011377;28;20319;-72
2022/08/26 09:32:40;;;;;;;11.70;3.60;;;27.90;84.70;;;;;;5011347;28;20285;-72
2022/08/26 09:35:23;;;;;;;14.82;3.38;;;28.00;85.40;;;;;;5011075;28;20208;-72
2022/08/26 09:37:50;;;;;;;8.48;3.20;;;28.10;84.80;;;;;;5067203;28;20240;-73
2022/08/26 09:40:25;;;;;;;19.33;4.40;;;28.10;84.10;;;;;;5045187;28;20233;-71
2022/08/26 09:43:12;;;;;;;23.27;3.97;;;28.20;83.00;;;;;;5093885;28;20189;-72
2022/08/26 09:45:40;;;;;;;10.90;2.90;;;28.20;80.90;;;;;;5030545;28;20661;-70
2022/08/26 09:48:08;;;;;;;9.70;2.55;;;28.30;79.20;;;;;;5011118;28;20660;-72
2022/08/26 09:50:37;;;;;;;9.77;2.58;;;28.30;78.70;;;;;;5018871;28;20320;-71
2022/08/26 09:53:08;;;;;;;10.77;2.33;;;28.40;78.20;;;;;;5019712;28;20624;-72
2022/08/26 09:55:36;;;;;;;156.73;11.40;;;28.40;77.80;;;;;;4991366;28;20205;-73
2022/08/26 09:58:03;;;;;;;29.05;4.30;;;28.50;78.30;;;;;;5004959;28;20302;-70
2022/08/26 10:00:35;;;;;;;18.35;2.97;;;28.60;78.00;;;;;;4998115;28;20209;-71
2022/08/26 10:03:04;;;;;;;45.80;5.20;;;28.60;78.80;;;;;;4991886;28;20292;-70
2022/08/26 10:05:36;;;;;;;18.17;3.10;;;28.60;78.00;;;;;;4990966;28;20266;-70
2022/08/26 10:08:23;;;;;;;11.63;2.55;;;28.70;78.50;;;;;;4991134;28;20289;-70
2022/08/26 10:10:51;;;;;;;8.88;2.53;;;28.70;77.90;;;;;;5001311;28;20313;-69
2022/08/26 10:13:25;;;;;;;12.18;2.40;;;28.80;75.00;;;;;;5008828;28;20210;-72
2022/08/26 10:16:00;;;;;;;7.43;2.60;;;28.80;77.30;;;;;;4990832;28;20202;-71
2022/08/26 10:18:31;;;;;;;8.32;2.40;;;28.80;76.10;;;;;;5001333;28;20312;-71
2022/08/26 10:21:04;;;;;;;8.10;2.60;;;28.90;73.40;;;;;;4992484;28;20286;-71
2022/08/26 10:23:36;;;;;;;6.82;2.10;;;28.90;75.30;;;;;;4971730;28;20203;-73
2022/08/26 10:26:08;;;;;;;9.63;2.45;;;29.00;74.60;;;;;;4971011;28;20198;-70
2022/08/26 10:28:40;;;;;;;29.95;3.25;;;29.00;73.30;;;;;;4988383;28;20219;-70
2022/08/26 10:31:20;;;;;;;7.00;2.10;;;29.00;70.40;;;;;;4985213;28;20695;-70
2022/08/26 10:33:47;;;;;;;7.40;2.47;;;29.00;70.60;;;;;;4990430;28;20244;-72
2022/08/26 10:39:02;;;;;;;11.95;2.75;;;29.10;71.00;;;;;;4989878;28;20259;-70
2022/08/26 10:41:35;;;;;;;7.13;2.20;;;29.10;72.00;;;;;;4990402;28;20534;-70
2022/08/26 10:44:06;;;;;;;6.63;2.28;;;29.10;72.20;;;;;;4990122;28;20572;-72
2022/08/26 10:46:39;;;;;;;4.63;2.10;;;29.10;71.20;;;;;;4990094;28;20333;-70
2022/08/26 10:49:09;;;;;;;54.38;4.55;;;29.20;71.60;;;;;;4990443;28;20289;-73
2022/08/26 10:51:42;;;;;;;22.10;3.15;;;29.20;68.70;;;;;;4990685;28;20218;-71
2022/08/26 10:54:14;;;;;;;9.68;2.15;;;29.20;69.20;;;;;;4991054;28;20285;-72
2022/08/26 10:56:48;;;;;;;7.72;1.90;;;29.20;65.40;;;;;;4990334;28;20290;-71
2022/08/26 10:59:23;;;;;;;17.65;2.70;;;29.20;65.00;;;;;;4990530;28;20194;-72
2022/08/26 11:01:59;;;;;;;6.93;1.50;;;29.20;65.20;;;;;;5001274;28;20648;-71
2022/08/26 11:04:38;;;;;;;6.30;2.00;;;29.20;64.50;;;;;;5009692;28;20194;-69
2022/08/26 11:07:34;;;;;;;5.82;1.90;;;29.30;63.90;;;;;;5010203;28;20665;-70
2022/08/26 11:10:03;;;;;;;8.85;2.00;;;29.30;64.70;;;;;;5009803;28;20301;-71
2022/08/26 11:12:50;;;;;;;6.57;2.15;;;29.40;63.40;;;;;;5000718;28;20237;-72
2022/08/26 11:16:08;;;;;;;7.60;1.90;;;29.40;62.70;;;;;;4990004;28;20295;-71
2022/08/26 11:18:45;;;;;;;14.80;2.45;;;29.40;62.50;;;;;;4991166;28;20288;-70
2022/08/26 11:22:04;;;;;;;11.13;2.38;;;29.40;63.60;;;;;;4990031;28;20195;-72
2022/08/26 11:25:06;;;;;;;5.13;1.92;;;29.40;64.70;;;;;;4981341;28;20721;-69
2022/08/26 11:27:56;;;;;;;6.90;2.53;;;29.40;66.30;;;;;;4969971;28;20218;-69
2022/08/26 11:30:46;;;;;;;8.57;2.05;;;29.30;65.80;;;;;;4968346;28;20231;-71
2022/08/26 11:33:57;;;;;;;21.05;3.42;;;29.20;66.00;;;;;;4970602;28;20302;-73
2022/08/26 11:36:56;;;;;;;8.90;2.40;;;29.20;67.40;;;;;;4986902;28;20222;-72
2022/08/26 11:39:28;;;;;;;11.88;2.88;;;29.20;67.30;;;;;;4990854;28;20549;-72
2022/08/26 11:41:58;;;;;;;11.43;2.50;;;29.20;68.70;;;;;;4989681;28;20279;-69
2022/08/26 11:44:30;;;;;;;48.75;5.20;;;29.30;67.20;;;;;;4989582;28;20238;-69
2022/08/26 11:46:59;;;;;;;6.18;2.47;;;29.30;67.80;;;;;;4989339;28;20277;-69
2022/08/26 11:49:27;;;;;;;28.25;3.83;;;29.30;68.80;;;;;;4988765;28;20217;-69
2022/08/26 11:52:11;;;;;;;7.78;2.22;;;29.30;68.60;;;;;;4992886;28;20655;-71
2022/08/26 11:54:38;;;;;;;9.77;2.90;;;29.30;68.30;;;;;;4991304;28;20732;-70
2022/08/26 11:57:07;;;;;;;13.25;3.00;;;29.30;69.20;;;;;;4990470;28;20213;-72
2022/08/26 11:59:38;;;;;;;8.60;2.70;;;29.40;69.40;;;;;;4992721;28;20217;-71
2022/08/26 12:02:14;;;;;;;10.35;2.80;;;29.40;68.40;;;;;;4991045;28;20315;-71
2022/08/26 12:04:45;;;;;;;9.90;2.80;;;29.40;70.20;;;;;;4992696;28;20620;-70
2022/08/26 12:07:13;;;;;;;68.05;6.95;;;29.40;69.00;;;;;;4991820;28;20292;-71
2022/08/26 12:09:54;;;;;;;61.67;4.85;;;29.40;67.50;;;;;;4994137;28;20276;-72
2022/08/26 12:12:29;;;;;;;17.40;2.83;;;29.40;67.60;;;;;;4998112;28;20202;-69
2022/08/26 12:15:07;;;;;;;5.85;2.70;;;29.50;67.70;;;;;;5008304;28;20832;-70
2022/08/26 12:17:34;;;;;;;10.98;2.50;;;29.50;68.00;;;;;;4988437;28;20284;-72
2022/08/26 12:20:00;;;;;;;43.55;5.88;;;29.50;69.00;;;;;;4990859;28;20212;-70
2022/08/26 12:22:33;;;;;;;21.40;3.25;;;29.50;68.00;;;;;;4991617;28;20214;-71
2022/08/26 12:25:03;;;;;;;9.88;2.10;;;29.60;66.70;;;;;;4992222;28;20231;-70
2022/08/26 12:27:31;;;;;;;8.23;2.20;;;29.60;66.10;;;;;;4992695;28;20225;-70
2022/08/26 12:30:05;;;;;;;28.90;3.25;;;29.60;66.10;;;;;;4992116;28;20684;-71
2022/08/26 12:32:33;;;;;;;17.40;2.85;;;29.60;65.20;;;;;;5004968;28;20672;-71
2022/08/26 12:35:01;;;;;;;9.40;2.75;;;29.50;64.60;;;;;;5012059;28;20294;-72
2022/08/26 12:37:33;;;;;;;9.35;2.30;;;29.40;64.50;;;;;;5010217;28;20211;-71
2022/08/26 12:40:25;;;;;;;8.68;2.67;;;29.40;65.80;;;;;;4992499;28;20278;-70
2022/08/26 12:42:52;;;;;;;21.35;4.18;;;29.40;67.30;;;;;;4996170;28;20290;-71
2022/08/26 12:45:27;;;;;;;9.98;2.53;;;29.30;67.10;;;;;;5011939;28;20675;-70
2022/08/26 12:47:56;;;;;;;8.40;2.20;;;29.40;66.50;;;;;;5011450;28;20264;-70
2022/08/26 12:50:27;;;;;;;5.22;2.42;;;29.30;67.50;;;;;;5006200;28;20314;-70
2022/08/26 12:53:00;;;;;;;18.58;3.03;;;29.40;68.70;;;;;;4993853;28;20629;-70
2022/08/26 12:55:36;;;;;;;34.80;3.72;;;29.40;66.20;;;;;;4988448;28;20711;-71
2022/08/26 12:58:30;;;;;;;12.93;2.20;;;29.40;65.00;;;;;;4991862;28;20736;-70
2022/08/26 13:01:18;;;;;;;12.48;2.38;;;29.30;62.60;;;;;;4982413;28;20207;-70
2022/08/26 13:03:46;;;;;;;15.05;2.80;;;29.20;63.30;;;;;;4991823;28;20221;-71